sensor_id;sensor_type;location;lat;lon;timestamp;temperature;humidity
37678;DHT22;23517;50.390;8.616;2023-08-24T00:01:57;17.20;55.60
37678;DHT22;23517;50.390;8.616;2023-08-24T00:04:24;17.30;55.60
37678;DHT22;23517;50.390;8.616;2023-08-24T00:06:50;17.30;55.40
37678;DHT22;23517;50.390;8.616;2023-08-24T00:09:17;17.20;55.40
37678;DHT22;23517;50.390;8.616;2023-08-24T00:11:44;17.10;55.80
37678;DHT22;23517;50.390;8.616;2023-08-24T00:14:11;17.00;56.00
37678;DHT22;23517;50.390;8.616;2023-08-24T00:16:38;17.00;56.20
37678;DHT22;23517;50.390;8.616;2023-08-24T00:19:06;16.90;56.20
37678;DHT22;23517;50.390;8.616;2023-08-24T00:21:33;16.80;56.70
37678;DHT22;23517;50.390;8.616;2023-08-24T00:24:00;16.90;57.00
37678;DHT22;23517;50.390;8.616;2023-08-24T00:26:26;16.90;57.00
37678;DHT22;23517;50.390;8.616;2023-08-24T00:28:53;16.90;56.40
37678;DHT22;23517;50.390;8.616;2023-08-24T00:31:20;16.80;56.60
37678;DHT22;23517;50.390;8.616;2023-08-24T00:33:46;16.80;57.00
37678;DHT22;23517;50.390;8.616;2023-08-24T00:36:13;16.80;57.40
37678;DHT22;23517;50.390;8.616;2023-08-24T00:38:40;16.80;57.50
37678;DHT22;23517;50.390;8.616;2023-08-24T00:41:07;16.70;57.90
37678;DHT22;23517;50.390;8.616;2023-08-24T00:43:33;16.70;57.90
37678;DHT22;23517;50.390;8.616;2023-08-24T00:46:03;16.70;57.70
37678;DHT22;23517;50.390;8.616;2023-08-24T00:48:31;16.60;57.90
37678;DHT22;23517;50.390;8.616;2023-08-24T00:51:00;16.60;58.50
37678;DHT22;23517;50.390;8.616;2023-08-24T00:53:29;16.70;58.50
37678;DHT22;23517;50.390;8.616;2023-08-24T00:55:57;16.70;58.10
37678;DHT22;23517;50.390;8.616;2023-08-24T00:58:24;16.80;57.90
37678;DHT22;23517;50.390;8.616;2023-08-24T01:00:54;16.80;57.40
37678;DHT22;23517;50.390;8.616;2023-08-24T01:03:23;16.80;57.10
37678;DHT22;23517;50.390;8.616;2023-08-24T01:05:51;16.70;57.30
37678;DHT22;23517;50.390;8.616;2023-08-24T01:08:19;16.70;57.70
37678;DHT22;23517;50.390;8.616;2023-08-24T01:11:01;16.70;58.00
37678;DHT22;23517;50.390;8.616;2023-08-24T01:13:38;16.70;58.10
37678;DHT22;23517;50.390;8.616;2023-08-24T01:16:16;16.60;58.20
37678;DHT22;23517;50.390;8.616;2023-08-24T01:18:47;16.60;58.70
37678;DHT22;23517;50.390;8.616;2023-08-24T01:21:14;16.60;58.70
37678;DHT22;23517;50.390;8.616;2023-08-24T01:23:53;16.60;58.60
37678;DHT22;23517;50.390;8.616;2023-08-24T01:26:30;16.60;58.50
37678;DHT22;23517;50.390;8.616;2023-08-24T01:28:56;16.70;58.40
37678;DHT22;23517;50.390;8.616;2023-08-24T01:31:24;16.60;58.30
37678;DHT22;23517;50.390;8.616;2023-08-24T01:33:51;16.70;58.30
37678;DHT22;23517;50.390;8.616;2023-08-24T01:36:18;16.70;58.00
37678;DHT22;23517;50.390;8.616;2023-08-24T01:38:54;16.70;57.70
37678;DHT22;23517;50.390;8.616;2023-08-24T01:41:30;16.70;58.10
37678;DHT22;23517;50.390;8.616;2023-08-24T01:44:06;16.70;58.10
37678;DHT22;23517;50.390;8.616;2023-08-24T01:46:34;16.70;57.90
37678;DHT22;23517;50.390;8.616;2023-08-24T01:49:02;16.70;58.00
37678;DHT22;23517;50.390;8.616;2023-08-24T01:51:30;16.70;57.90
37678;DHT22;23517;50.390;8.616;2023-08-24T01:53:57;16.70;58.00
37678;DHT22;23517;50.390;8.616;2023-08-24T01:56:25;16.70;57.90
37678;DHT22;23517;50.390;8.616;2023-08-24T01:58:51;16.70;57.70
37678;DHT22;23517;50.390;8.616;2023-08-24T02:01:18;16.80;57.60
37678;DHT22;23517;50.390;8.616;2023-08-24T02:03:45;16.70;57.60
37678;DHT22;23517;50.390;8.616;2023-08-24T02:06:12;16.70;57.70
37678;DHT22;23517;50.390;8.616;2023-08-24T02:08:39;16.70;57.60
37678;DHT22;23517;50.390;8.616;2023-08-24T02:11:06;16.80;57.50
37678;DHT22;23517;50.390;8.616;2023-08-24T02:13:33;16.70;57.30
37678;DHT22;23517;50.390;8.616;2023-08-24T02:16:04;16.70;57.00
37678;DHT22;23517;50.390;8.616;2023-08-24T02:18:32;16.60;57.40
37678;DHT22;23517;50.390;8.616;2023-08-24T02:20:59;16.70;57.50
37678;DHT22;23517;50.390;8.616;2023-08-24T02:23:26;16.60;57.00
37678;DHT22;23517;50.390;8.616;2023-08-24T02:25:52;16.60;57.20
37678;DHT22;23517;50.390;8.616;2023-08-24T02:28:19;16.60;57.20
37678;DHT22;23517;50.390;8.616;2023-08-24T02:30:46;16.50;57.10
37678;DHT22;23517;50.390;8.616;2023-08-24T02:33:13;16.60;57.40
37678;DHT22;23517;50.390;8.616;2023-08-24T02:35:40;16.60;56.70
37678;DHT22;23517;50.390;8.616;2023-08-24T02:38:07;16.50;56.90
37678;DHT22;23517;50.390;8.616;2023-08-24T02:40:33;16.50;56.90
37678;DHT22;23517;50.390;8.616;2023-08-24T02:43:00;16.50;57.10
37678;DHT22;23517;50.390;8.616;2023-08-24T02:45:27;16.50;56.60
37678;DHT22;23517;50.390;8.616;2023-08-24T02:47:53;16.50;57.00
37678;DHT22;23517;50.390;8.616;2023-08-24T02:50:20;16.50;57.30
37678;DHT22;23517;50.390;8.616;2023-08-24T02:52:47;16.50;57.20
37678;DHT22;23517;50.390;8.616;2023-08-24T02:55:13;16.50;57.00
37678;DHT22;23517;50.390;8.616;2023-08-24T02:57:40;16.50;57.00
37678;DHT22;23517;50.390;8.616;2023-08-24T03:00:07;16.50;56.80
37678;DHT22;23517;50.390;8.616;2023-08-24T03:02:36;16.60;56.20
37678;DHT22;23517;50.390;8.616;2023-08-24T03:05:03;16.50;56.20
37678;DHT22;23517;50.390;8.616;2023-08-24T03:07:34;16.50;56.20
37678;DHT22;23517;50.390;8.616;2023-08-24T03:10:01;16.50;56.20
37678;DHT22;23517;50.390;8.616;2023-08-24T03:12:28;16.40;56.30
37678;DHT22;23517;50.390;8.616;2023-08-24T03:14:54;16.30;56.70
37678;DHT22;23517;50.390;8.616;2023-08-24T03:17:21;16.30;56.90
37678;DHT22;23517;50.390;8.616;2023-08-24T03:19:48;16.20;57.80
37678;DHT22;23517;50.390;8.616;2023-08-24T03:22:14;16.20;58.00
37678;DHT22;23517;50.390;8.616;2023-08-24T03:24:41;16.10;58.30
37678;DHT22;23517;50.390;8.616;2023-08-24T03:27:08;16.20;58.50
37678;DHT22;23517;50.390;8.616;2023-08-24T03:29:34;16.20;58.30
37678;DHT22;23517;50.390;8.616;2023-08-24T03:32:01;16.20;58.50
37678;DHT22;23517;50.390;8.616;2023-08-24T03:34:28;16.20;58.60
37678;DHT22;23517;50.390;8.616;2023-08-24T03:36:56;16.10;58.60
37678;DHT22;23517;50.390;8.616;2023-08-24T03:39:23;16.20;58.60
37678;DHT22;23517;50.390;8.616;2023-08-24T03:41:50;16.10;58.70
37678;DHT22;23517;50.390;8.616;2023-08-24T03:44:19;16.10;59.10
37678;DHT22;23517;50.390;8.616;2023-08-24T03:46:46;16.20;59.20
37678;DHT22;23517;50.390;8.616;2023-08-24T03:49:13;16.20;58.80
37678;DHT22;23517;50.390;8.616;2023-08-24T03:51:39;16.20;59.40
37678;DHT22;23517;50.390;8.616;2023-08-24T03:54:06;16.20;59.60
37678;DHT22;23517;50.390;8.616;2023-08-24T03:56:33;16.20;59.80
37678;DHT22;23517;50.390;8.616;2023-08-24T03:58:59;16.20;59.90
37678;DHT22;23517;50.390;8.616;2023-08-24T04:01:26;16.30;60.00
37678;DHT22;23517;50.390;8.616;2023-08-24T04:03:53;16.30;59.70
37678;DHT22;23517;50.390;8.616;2023-08-24T04:06:20;16.30;59.70
37678;DHT22;23517;50.390;8.616;2023-08-24T04:08:46;16.30;59.70
37678;DHT22;23517;50.390;8.616;2023-08-24T04:11:13;16.30;60.30
37678;DHT22;23517;50.390;8.616;2023-08-24T04:13:40;16.20;60.40
37678;DHT22;23517;50.390;8.616;2023-08-24T04:16:06;16.30;60.20
37678;DHT22;23517;50.390;8.616;2023-08-24T04:18:34;16.20;60.50
37678;DHT22;23517;50.390;8.616;2023-08-24T04:21:00;16.30;60.90
37678;DHT22;23517;50.390;8.616;2023-08-24T04:23:27;16.20;61.00
37678;DHT22;23517;50.390;8.616;2023-08-24T04:25:54;16.20;61.00
37678;DHT22;23517;50.390;8.616;2023-08-24T04:28:21;16.20;61.40
37678;DHT22;23517;50.390;8.616;2023-08-24T04:30:56;16.20;61.30
37678;DHT22;23517;50.390;8.616;2023-08-24T04:33:23;16.30;62.10
37678;DHT22;23517;50.390;8.616;2023-08-24T04:35:50;16.30;62.00
37678;DHT22;23517;50.390;8.616;2023-08-24T04:38:17;16.30;62.40
37678;DHT22;23517;50.390;8.616;2023-08-24T04:40:54;16.40;62.10
37678;DHT22;23517;50.390;8.616;2023-08-24T04:43:23;16.40;61.80
37678;DHT22;23517;50.390;8.616;2023-08-24T04:45:52;16.50;61.90
37678;DHT22;23517;50.390;8.616;2023-08-24T04:48:23;16.50;61.10
37678;DHT22;23517;50.390;8.616;2023-08-24T04:50:51;16.50;61.80
37678;DHT22;23517;50.390;8.616;2023-08-24T04:53:20;16.50;62.20
37678;DHT22;23517;50.390;8.616;2023-08-24T04:55:46;16.50;62.50
37678;DHT22;23517;50.390;8.616;2023-08-24T04:58:13;16.50;62.80
37678;DHT22;23517;50.390;8.616;2023-08-24T05:00:40;16.50;63.60
37678;DHT22;23517;50.390;8.616;2023-08-24T05:03:07;16.60;63.60
37678;DHT22;23517;50.390;8.616;2023-08-24T05:05:37;16.70;62.80
37678;DHT22;23517;50.390;8.616;2023-08-24T05:08:06;16.70;63.00
37678;DHT22;23517;50.390;8.616;2023-08-24T05:10:39;16.80;63.00
37678;DHT22;23517;50.390;8.616;2023-08-24T05:13:06;16.90;62.40
37678;DHT22;23517;50.390;8.616;2023-08-24T05:15:33;17.00;61.60
37678;DHT22;23517;50.390;8.616;2023-08-24T05:18:00;17.10;61.30
37678;DHT22;23517;50.390;8.616;2023-08-24T05:20:27;17.10;61.30
37678;DHT22;23517;50.390;8.616;2023-08-24T05:22:54;17.30;61.10
37678;DHT22;23517;50.390;8.616;2023-08-24T05:25:22;17.30;60.10
37678;DHT22;23517;50.390;8.616;2023-08-24T05:27:49;17.30;61.10
37678;DHT22;23517;50.390;8.616;2023-08-24T05:30:18;17.40;61.60
37678;DHT22;23517;50.390;8.616;2023-08-24T05:32:45;17.50;61.80
37678;DHT22;23517;50.390;8.616;2023-08-24T05:35:11;17.60;61.10
37678;DHT22;23517;50.390;8.616;2023-08-24T05:37:38;17.70;59.90
37678;DHT22;23517;50.390;8.616;2023-08-24T05:40:05;17.80;59.90
37678;DHT22;23517;50.390;8.616;2023-08-24T05:42:33;18.00;59.30
37678;DHT22;23517;50.390;8.616;2023-08-24T05:44:59;18.20;58.50
37678;DHT22;23517;50.390;8.616;2023-08-24T05:47:26;18.30;56.40
37678;DHT22;23517;50.390;8.616;2023-08-24T05:49:53;18.40;56.40
37678;DHT22;23517;50.390;8.616;2023-08-24T05:52:19;18.60;56.00
37678;DHT22;23517;50.390;8.616;2023-08-24T05:54:46;18.80;51.90
37678;DHT22;23517;50.390;8.616;2023-08-24T05:57:13;19.00;54.90
37678;DHT22;23517;50.390;8.616;2023-08-24T05:59:39;19.10;54.40
37678;DHT22;23517;50.390;8.616;2023-08-24T06:02:06;19.30;53.80
37678;DHT22;23517;50.390;8.616;2023-08-24T06:04:33;19.40;53.20
37678;DHT22;23517;50.390;8.616;2023-08-24T06:06:59;19.40;51.40
37678;DHT22;23517;50.390;8.616;2023-08-24T06:09:26;19.50;51.80
37678;DHT22;23517;50.390;8.616;2023-08-24T06:11:53;19.50;53.10
37678;DHT22;23517;50.390;8.616;2023-08-24T06:14:20;19.50;48.80
37678;DHT22;23517;50.390;8.616;2023-08-24T06:16:46;19.50;51.40
37678;DHT22;23517;50.390;8.616;2023-08-24T06:19:15;19.40;50.20
37678;DHT22;23517;50.390;8.616;2023-08-24T06:21:41;19.30;51.20
37678;DHT22;23517;50.390;8.616;2023-08-24T06:24:08;19.30;51.80
37678;DHT22;23517;50.390;8.616;2023-08-24T06:26:35;19.20;52.40
37678;DHT22;23517;50.390;8.616;2023-08-24T06:29:02;19.10;52.80
37678;DHT22;23517;50.390;8.616;2023-08-24T06:31:28;19.10;54.00
37678;DHT22;23517;50.390;8.616;2023-08-24T06:33:57;19.10;53.50
37678;DHT22;23517;50.390;8.616;2023-08-24T06:36:24;19.10;55.40
37678;DHT22;23517;50.390;8.616;2023-08-24T06:38:51;19.00;55.30
37678;DHT22;23517;50.390;8.616;2023-08-24T06:41:19;18.90;55.60
37678;DHT22;23517;50.390;8.616;2023-08-24T06:43:46;18.90;56.30
37678;DHT22;23517;50.390;8.616;2023-08-24T06:46:13;18.80;56.60
37678;DHT22;23517;50.390;8.616;2023-08-24T06:48:40;18.90;58.20
37678;DHT22;23517;50.390;8.616;2023-08-24T06:51:10;19.00;59.30
37678;DHT22;23517;50.390;8.616;2023-08-24T06:53:36;19.00;60.20
37678;DHT22;23517;50.390;8.616;2023-08-24T06:56:03;19.00;60.60
37678;DHT22;23517;50.390;8.616;2023-08-24T06:58:30;19.10;60.60
37678;DHT22;23517;50.390;8.616;2023-08-24T07:00:57;19.10;62.30
37678;DHT22;23517;50.390;8.616;2023-08-24T07:03:24;19.00;64.40
37678;DHT22;23517;50.390;8.616;2023-08-24T07:05:50;18.90;65.50
37678;DHT22;23517;50.390;8.616;2023-08-24T07:08:17;19.00;66.40
37678;DHT22;23517;50.390;8.616;2023-08-24T07:10:44;19.00;66.20
37678;DHT22;23517;50.390;8.616;2023-08-24T07:13:11;19.10;64.90
37678;DHT22;23517;50.390;8.616;2023-08-24T07:15:37;19.10;66.50
37678;DHT22;23517;50.390;8.616;2023-08-24T07:18:04;19.10;67.50
37678;DHT22;23517;50.390;8.616;2023-08-24T07:20:32;19.30;68.20
37678;DHT22;23517;50.390;8.616;2023-08-24T07:23:01;19.40;68.50
37678;DHT22;23517;50.390;8.616;2023-08-24T07:25:28;19.60;68.10
37678;DHT22;23517;50.390;8.616;2023-08-24T07:27:55;19.90;65.60
37678;DHT22;23517;50.390;8.616;2023-08-24T07:30:26;20.20;63.20
37678;DHT22;23517;50.390;8.616;2023-08-24T07:33:00;21.00;59.30
37678;DHT22;23517;50.390;8.616;2023-08-24T07:35:28;22.60;51.30
37678;DHT22;23517;50.390;8.616;2023-08-24T07:37:56;24.10;42.90
37678;DHT22;23517;50.390;8.616;2023-08-24T07:40:22;24.90;38.60
37678;DHT22;23517;50.390;8.616;2023-08-24T07:42:51;25.20;35.60
37678;DHT22;23517;50.390;8.616;2023-08-24T07:45:22;25.30;34.40
37678;DHT22;23517;50.390;8.616;2023-08-24T07:47:52;25.00;35.50
37678;DHT22;23517;50.390;8.616;2023-08-24T07:50:19;24.50;36.70
37678;DHT22;23517;50.390;8.616;2023-08-24T07:52:46;24.10;37.50
37678;DHT22;23517;50.390;8.616;2023-08-24T07:55:13;24.20;37.10
37678;DHT22;23517;50.390;8.616;2023-08-24T07:57:39;24.20;36.60
37678;DHT22;23517;50.390;8.616;2023-08-24T08:00:06;24.00;37.70
37678;DHT22;23517;50.390;8.616;2023-08-24T08:02:36;24.60;35.50
37678;DHT22;23517;50.390;8.616;2023-08-24T08:05:04;24.60;35.20
37678;DHT22;23517;50.390;8.616;2023-08-24T08:07:34;24.80;33.80
37678;DHT22;23517;50.390;8.616;2023-08-24T08:10:01;24.60;34.40
37678;DHT22;23517;50.390;8.616;2023-08-24T08:12:27;24.50;35.60
37678;DHT22;23517;50.390;8.616;2023-08-24T08:14:56;24.70;34.80
37678;DHT22;23517;50.390;8.616;2023-08-24T08:17:23;24.50;35.60
37678;DHT22;23517;50.390;8.616;2023-08-24T08:19:54;24.70;35.50
37678;DHT22;23517;50.390;8.616;2023-08-24T08:22:22;25.10;35.00
37678;DHT22;23517;50.390;8.616;2023-08-24T08:24:49;26.00;33.30
37678;DHT22;23517;50.390;8.616;2023-08-24T08:27:16;27.10;30.30
37678;DHT22;23517;50.390;8.616;2023-08-24T08:29:43;28.10;27.20
37678;DHT22;23517;50.390;8.616;2023-08-24T08:32:10;28.40;25.80
37678;DHT22;23517;50.390;8.616;2023-08-24T08:34:38;28.40;26.10
37678;DHT22;23517;50.390;8.616;2023-08-24T08:37:05;28.30;24.40
37678;DHT22;23517;50.390;8.616;2023-08-24T08:39:35;28.80;24.30
37678;DHT22;23517;50.390;8.616;2023-08-24T08:42:02;29.70;22.10
37678;DHT22;23517;50.390;8.616;2023-08-24T08:44:32;30.50;21.60
37678;DHT22;23517;50.390;8.616;2023-08-24T08:46:59;31.70;18.30
37678;DHT22;23517;50.390;8.616;2023-08-24T08:49:30;32.30;17.20
37678;DHT22;23517;50.390;8.616;2023-08-24T08:51:57;32.50;17.70
37678;DHT22;23517;50.390;8.616;2023-08-24T08:54:24;33.30;15.50
37678;DHT22;23517;50.390;8.616;2023-08-24T08:56:50;33.90;15.00
37678;DHT22;23517;50.390;8.616;2023-08-24T08:59:17;34.60;14.30
37678;DHT22;23517;50.390;8.616;2023-08-24T09:01:45;34.30;14.70
37678;DHT22;23517;50.390;8.616;2023-08-24T09:04:12;33.50;14.00
37678;DHT22;23517;50.390;8.616;2023-08-24T09:06:40;32.80;15.40
37678;DHT22;23517;50.390;8.616;2023-08-24T09:09:07;33.60;14.70
37678;DHT22;23517;50.390;8.616;2023-08-24T09:11:35;34.40;13.50
37678;DHT22;23517;50.390;8.616;2023-08-24T09:14:02;34.80;13.40
37678;DHT22;23517;50.390;8.616;2023-08-24T09:18:56;35.40;12.70
37678;DHT22;23517;50.390;8.616;2023-08-24T09:21:23;35.70;12.70
37678;DHT22;23517;50.390;8.616;2023-08-24T09:23:53;35.70;11.80
37678;DHT22;23517;50.390;8.616;2023-08-24T09:26:32;35.90;12.40
37678;DHT22;23517;50.390;8.616;2023-08-24T09:29:05;36.30;12.20
37678;DHT22;23517;50.390;8.616;2023-08-24T09:31:39;35.80;11.40
37678;DHT22;23517;50.390;8.616;2023-08-24T09:34:07;36.10;11.80
37678;DHT22;23517;50.390;8.616;2023-08-24T09:36:34;35.30;12.20
37678;DHT22;23517;50.390;8.616;2023-08-24T09:39:03;34.60;12.90
37678;DHT22;23517;50.390;8.616;2023-08-24T09:41:45;34.90;12.80
37678;DHT22;23517;50.390;8.616;2023-08-24T09:44:16;34.80;13.20
37678;DHT22;23517;50.390;8.616;2023-08-24T09:46:43;35.60;12.50
37678;DHT22;23517;50.390;8.616;2023-08-24T09:49:11;35.50;13.30
37678;DHT22;23517;50.390;8.616;2023-08-24T09:51:40;35.90;12.10
37678;DHT22;23517;50.390;8.616;2023-08-24T09:54:11;36.50;11.90
37678;DHT22;23517;50.390;8.616;2023-08-24T09:56:40;36.50;11.30
37678;DHT22;23517;50.390;8.616;2023-08-24T09:59:16;35.60;11.90
37678;DHT22;23517;50.390;8.616;2023-08-24T10:01:46;35.40;12.30
37678;DHT22;23517;50.390;8.616;2023-08-24T10:04:17;34.30;13.00
37678;DHT22;23517;50.390;8.616;2023-08-24T10:06:58;32.70;14.30
37678;DHT22;23517;50.390;8.616;2023-08-24T10:09:35;30.90;16.50
37678;DHT22;23517;50.390;8.616;2023-08-24T10:12:07;29.70;18.00
37678;DHT22;23517;50.390;8.616;2023-08-24T10:14:44;29.10;18.30
37678;DHT22;23517;50.390;8.616;2023-08-24T10:19:42;28.40;19.50
37678;DHT22;23517;50.390;8.616;2023-08-24T10:22:10;28.10;19.20
37678;DHT22;23517;50.390;8.616;2023-08-24T10:24:37;28.20;19.30
37678;DHT22;23517;50.390;8.616;2023-08-24T10:27:05;28.30;18.50
37678;DHT22;23517;50.390;8.616;2023-08-24T10:29:32;28.20;19.10
37678;DHT22;23517;50.390;8.616;2023-08-24T10:31:59;28.10;19.40
37678;DHT22;23517;50.390;8.616;2023-08-24T10:34:26;27.80;19.70
37678;DHT22;23517;50.390;8.616;2023-08-24T10:36:52;27.80;17.90
37678;DHT22;23517;50.390;8.616;2023-08-24T10:39:27;27.90;18.20
37678;DHT22;23517;50.390;8.616;2023-08-24T10:41:55;28.00;19.10
37678;DHT22;23517;50.390;8.616;2023-08-24T10:44:24;27.70;19.50
37678;DHT22;23517;50.390;8.616;2023-08-24T10:47:16;27.60;19.30
37678;DHT22;23517;50.390;8.616;2023-08-24T10:52:25;27.40;21.10
37678;DHT22;23517;50.390;8.616;2023-08-24T10:55:03;27.30;21.10
37678;DHT22;23517;50.390;8.616;2023-08-24T10:57:39;27.20;21.00
37678;DHT22;23517;50.390;8.616;2023-08-24T11:00:11;27.30;21.20
37678;DHT22;23517;50.390;8.616;2023-08-24T11:02:49;27.50;21.90
37678;DHT22;23517;50.390;8.616;2023-08-24T11:05:29;27.40;21.50
37678;DHT22;23517;50.390;8.616;2023-08-24T11:08:04;27.60;22.20
37678;DHT22;23517;50.390;8.616;2023-08-24T11:15:50;27.50;22.70
37678;DHT22;23517;50.390;8.616;2023-08-24T11:18:26;27.30;23.00
37678;DHT22;23517;50.390;8.616;2023-08-24T11:20:55;27.40;23.20
37678;DHT22;23517;50.390;8.616;2023-08-24T11:23:24;27.40;23.30
37678;DHT22;23517;50.390;8.616;2023-08-24T11:25:52;27.50;23.50
37678;DHT22;23517;50.390;8.616;2023-08-24T11:28:28;27.60;22.90
37678;DHT22;23517;50.390;8.616;2023-08-24T11:30:57;27.90;22.80
37678;DHT22;23517;50.390;8.616;2023-08-24T11:33:32;28.10;22.20
37678;DHT22;23517;50.390;8.616;2023-08-24T11:36:02;27.80;21.80
37678;DHT22;23517;50.390;8.616;2023-08-24T11:38:40;27.70;22.50
37678;DHT22;23517;50.390;8.616;2023-08-24T11:41:11;28.00;22.60
37678;DHT22;23517;50.390;8.616;2023-08-24T11:43:43;28.00;22.40
37678;DHT22;23517;50.390;8.616;2023-08-24T11:46:16;28.30;21.50
37678;DHT22;23517;50.390;8.616;2023-08-24T11:48:44;28.20;21.60
37678;DHT22;23517;50.390;8.616;2023-08-24T11:51:12;28.00;22.90
37678;DHT22;23517;50.390;8.616;2023-08-24T11:53:42;28.10;22.60
37678;DHT22;23517;50.390;8.616;2023-08-24T11:56:10;28.00;22.90
37678;DHT22;23517;50.390;8.616;2023-08-24T11:58:41;28.00;22.60
37678;DHT22;23517;50.390;8.616;2023-08-24T12:01:10;28.00;21.40
37678;DHT22;23517;50.390;8.616;2023-08-24T12:03:39;27.90;21.30
37678;DHT22;23517;50.390;8.616;2023-08-24T12:06:13;27.80;21.80
37678;DHT22;23517;50.390;8.616;2023-08-24T12:08:43;27.70;22.30
37678;DHT22;23517;50.390;8.616;2023-08-24T12:11:17;27.70;21.40
37678;DHT22;23517;50.390;8.616;2023-08-24T12:13:46;27.80;21.90
37678;DHT22;23517;50.390;8.616;2023-08-24T12:16:16;28.00;21.60
37678;DHT22;23517;50.390;8.616;2023-08-24T12:18:58;28.00;21.80
37678;DHT22;23517;50.390;8.616;2023-08-24T12:21:27;28.10;21.20
37678;DHT22;23517;50.390;8.616;2023-08-24T12:24:04;28.00;21.20
37678;DHT22;23517;50.390;8.616;2023-08-24T12:26:36;28.00;20.20
37678;DHT22;23517;50.390;8.616;2023-08-24T12:29:07;28.00;21.30
37678;DHT22;23517;50.390;8.616;2023-08-24T12:31:35;27.90;21.10
37678;DHT22;23517;50.390;8.616;2023-08-24T12:34:04;27.90;21.00
37678;DHT22;23517;50.390;8.616;2023-08-24T12:36:33;28.00;21.40
37678;DHT22;23517;50.390;8.616;2023-08-24T12:39:03;28.10;20.70
37678;DHT22;23517;50.390;8.616;2023-08-24T12:41:31;28.00;21.50
37678;DHT22;23517;50.390;8.616;2023-08-24T12:43:58;28.00;21.30
37678;DHT22;23517;50.390;8.616;2023-08-24T12:46:25;28.00;21.30
37678;DHT22;23517;50.390;8.616;2023-08-24T12:48:54;28.00;21.20
37678;DHT22;23517;50.390;8.616;2023-08-24T12:51:22;28.00;21.10
37678;DHT22;23517;50.390;8.616;2023-08-24T12:53:51;28.10;21.70
37678;DHT22;23517;50.390;8.616;2023-08-24T12:56:17;28.00;22.00
37678;DHT22;23517;50.390;8.616;2023-08-24T12:58:44;28.10;21.40
37678;DHT22;23517;50.390;8.616;2023-08-24T13:01:11;28.30;21.60
37678;DHT22;23517;50.390;8.616;2023-08-24T13:03:41;28.40;22.20
37678;DHT22;23517;50.390;8.616;2023-08-24T13:06:08;28.40;20.50
37678;DHT22;23517;50.390;8.616;2023-08-24T13:08:49;28.30;20.70
37678;DHT22;23517;50.390;8.616;2023-08-24T13:11:16;28.20;21.50
37678;DHT22;23517;50.390;8.616;2023-08-24T13:13:43;28.20;22.30
37678;DHT22;23517;50.390;8.616;2023-08-24T13:16:11;28.10;22.50
37678;DHT22;23517;50.390;8.616;2023-08-24T13:18:38;28.20;22.40
37678;DHT22;23517;50.390;8.616;2023-08-24T13:21:05;28.20;20.50
37678;DHT22;23517;50.390;8.616;2023-08-24T13:23:32;28.30;21.10
37678;DHT22;23517;50.390;8.616;2023-08-24T13:26:00;28.30;21.50
37678;DHT22;23517;50.390;8.616;2023-08-24T13:28:27;28.50;21.50
37678;DHT22;23517;50.390;8.616;2023-08-24T13:30:55;28.70;21.10
37678;DHT22;23517;50.390;8.616;2023-08-24T13:33:22;28.60;20.40
37678;DHT22;23517;50.390;8.616;2023-08-24T13:35:49;28.60;20.40
37678;DHT22;23517;50.390;8.616;2023-08-24T13:38:15;28.50;19.80
37678;DHT22;23517;50.390;8.616;2023-08-24T13:40:42;28.30;20.40
37678;DHT22;23517;50.390;8.616;2023-08-24T13:43:11;28.30;21.70
37678;DHT22;23517;50.390;8.616;2023-08-24T13:45:38;28.10;22.80
37678;DHT22;23517;50.390;8.616;2023-08-24T13:48:05;28.00;23.40
37678;DHT22;23517;50.390;8.616;2023-08-24T13:50:31;28.00;24.60
37678;DHT22;23517;50.390;8.616;2023-08-24T13:52:58;27.80;25.00
37678;DHT22;23517;50.390;8.616;2023-08-24T13:55:25;27.80;25.40
37678;DHT22;23517;50.390;8.616;2023-08-24T13:57:51;27.60;28.30
37678;DHT22;23517;50.390;8.616;2023-08-24T14:00:19;27.50;30.50
37678;DHT22;23517;50.390;8.616;2023-08-24T14:02:46;27.20;31.90
37678;DHT22;23517;50.390;8.616;2023-08-24T14:05:15;27.00;33.00
37678;DHT22;23517;50.390;8.616;2023-08-24T14:07:41;27.00;33.30
37678;DHT22;23517;50.390;8.616;2023-08-24T14:10:08;27.00;33.60
37678;DHT22;23517;50.390;8.616;2023-08-24T14:12:35;26.90;33.60
37678;DHT22;23517;50.390;8.616;2023-08-24T14:15:02;26.90;34.10
37678;DHT22;23517;50.390;8.616;2023-08-24T14:17:29;26.80;35.00
37678;DHT22;23517;50.390;8.616;2023-08-24T14:19:55;26.60;35.30
37678;DHT22;23517;50.390;8.616;2023-08-24T14:22:23;26.40;35.20
37678;DHT22;23517;50.390;8.616;2023-08-24T14:24:49;26.30;32.50
37678;DHT22;23517;50.390;8.616;2023-08-24T14:27:16;26.30;32.60
37678;DHT22;23517;50.390;8.616;2023-08-24T14:29:43;26.30;32.10
37678;DHT22;23517;50.390;8.616;2023-08-24T14:32:09;26.20;33.60
37678;DHT22;23517;50.390;8.616;2023-08-24T14:34:36;26.10;31.90
37678;DHT22;23517;50.390;8.616;2023-08-24T14:37:03;25.90;31.50
37678;DHT22;23517;50.390;8.616;2023-08-24T14:39:29;25.90;33.90
37678;DHT22;23517;50.390;8.616;2023-08-24T14:41:56;25.90;32.30
37678;DHT22;23517;50.390;8.616;2023-08-24T14:44:23;25.80;31.80
37678;DHT22;23517;50.390;8.616;2023-08-24T14:46:51;25.90;31.30
37678;DHT22;23517;50.390;8.616;2023-08-24T14:49:18;26.00;31.50
37678;DHT22;23517;50.390;8.616;2023-08-24T14:51:46;26.00;31.40
37678;DHT22;23517;50.390;8.616;2023-08-24T14:54:13;26.10;31.40
37678;DHT22;23517;50.390;8.616;2023-08-24T14:56:41;26.10;31.90
37678;DHT22;23517;50.390;8.616;2023-08-24T14:59:08;26.10;32.60
37678;DHT22;23517;50.390;8.616;2023-08-24T15:01:34;26.10;32.90
37678;DHT22;23517;50.390;8.616;2023-08-24T15:04:01;26.00;33.00
37678;DHT22;23517;50.390;8.616;2023-08-24T15:06:28;26.00;32.60
37678;DHT22;23517;50.390;8.616;2023-08-24T15:08:55;26.00;32.80
37678;DHT22;23517;50.390;8.616;2023-08-24T15:11:22;25.90;31.90
37678;DHT22;23517;50.390;8.616;2023-08-24T15:13:48;25.70;32.00
37678;DHT22;23517;50.390;8.616;2023-08-24T15:16:15;25.60;32.20
37678;DHT22;23517;50.390;8.616;2023-08-24T15:18:42;25.50;33.10
37678;DHT22;23517;50.390;8.616;2023-08-24T15:21:10;25.40;33.30
37678;DHT22;23517;50.390;8.616;2023-08-24T15:23:36;25.40;34.10
37678;DHT22;23517;50.390;8.616;2023-08-24T15:26:03;25.40;35.40
37678;DHT22;23517;50.390;8.616;2023-08-24T15:28:38;25.40;36.50
37678;DHT22;23517;50.390;8.616;2023-08-24T15:31:41;25.40;37.50
37678;DHT22;23517;50.390;8.616;2023-08-24T15:34:09;25.40;38.70
37678;DHT22;23517;50.390;8.616;2023-08-24T15:36:35;25.30;39.50
37678;DHT22;23517;50.390;8.616;2023-08-24T15:39:03;25.20;39.40
37678;DHT22;23517;50.390;8.616;2023-08-24T15:41:35;25.20;40.90
37678;DHT22;23517;50.390;8.616;2023-08-24T15:44:01;25.00;42.50
37678;DHT22;23517;50.390;8.616;2023-08-24T15:46:28;25.00;43.10
37678;DHT22;23517;50.390;8.616;2023-08-24T15:48:55;25.00;43.30
37678;DHT22;23517;50.390;8.616;2023-08-24T15:51:23;24.90;45.10